Aviation Digital Data Service (ADDS)

Output produced by TAFs form (0718 UTC 16 April 2014)
found at http://aviationweather.gov/adds/tafs/
 
KVEL 160526Z 1606/1706 03010KT P6SM SCT100 BKN200 
     FM161800 10006KT P6SM SCT100 BKN150 
     FM170200 30005KT P6SM BKN150